This is the latest recevied weather packets stored in our database for station/object N8VDS-10. If no packets are shown the sender has not sent any weather packets the latest 10 day(s).
| Time | Temp. | Humidity | Pressure | Rain* | Wind** | Luminosity | Snow |
|---|---|---|---|---|---|---|---|
| 1777960521 | 15° C | 84% | 1003.3 hPa | 0 mm | - | 0 W/m² | - |
| 1777960218 | 15° C | 83% | 1003.2 hPa | 1.78 mm | - | 0 W/m² | - |
| 1777959916 | 15° C | 82% | 1003.1 hPa | 1.78 mm | - | 0 W/m² | - |
| 1777959614 | 15.56° C | 81% | 1003.4 hPa | 1.27 mm | - | 0 W/m² | - |
| 1777959311 | 16.11° C | 78% | 1003.4 hPa | 1.27 mm | - | 0 W/m² | - |
| 1777959007 | 16.11° C | 75% | 1003.5 hPa | 0 mm | - | 0 W/m² | - |
| 1777958704 | 17.78° C | 70% | 1003.4 hPa | 0 mm | - | 0 W/m² | - |
| 1777958401 | 18.33° C | 63% | 1003.3 hPa | 0 mm | - | 0 W/m² | - |
| 1777958098 | 18.33° C | 63% | 1003.3 hPa | 0 mm | - | 0 W/m² | - |
| 1777957796 | 18.33° C | 62% | 1003 hPa | 0 mm | - | 0 W/m² | - |
| 1777957494 | 18.89° C | 61% | 1002.9 hPa | 0 mm | - | 0 W/m² | - |
| 1777957191 | 18.89° C | 60% | 1002.9 hPa | 0 mm | - | 0 W/m² | - |
| 1777956888 | 18.89° C | 59% | 1002.9 hPa | 0 mm | - | 0 W/m² | - |
| 1777956585 | 18.89° C | 59% | 1002.5 hPa | 0 mm | - | 0 W/m² | - |
| 1777956282 | 18.89° C | 58% | 1002.5 hPa | 0 mm | - | 0 W/m² | - |
| 1777955978 | 19.44° C | 58% | 1002.5 hPa | 0 mm | - | 0 W/m² | - |
| 1777955675 | 19.44° C | 57% | 1002.4 hPa | 0 mm | - | 0 W/m² | - |
| 1777955371 | 19.44° C | 57% | 1001.8 hPa | 0 mm | - | 0 W/m² | - |
| 1777955067 | 20° C | 55% | 1002 hPa | 0 mm | - | 0 W/m² | - |
| 1777954765 | 20° C | 55% | 1001.8 hPa | 0 mm | - | 0 W/m² | - |
| 1777954462 | 20° C | 55% | 1001.6 hPa | 0 mm | - | 0 W/m² | - |
| 1777954159 | 20° C | 57% | 1001.6 hPa | 0 mm | - | 0 W/m² | - |
| 1777953857 | 20° C | 58% | 1001.8 hPa | 0 mm | - | 0 W/m² | - |
| 1777953553 | 20° C | 58% | 1001.8 hPa | 0 mm | - | 0 W/m² | - |
| 1777953249 | 20° C | 58% | 1002.2 hPa | 0 mm | - | 0 W/m² | - |
* Rain latest hour (hover to see other rain measurements)
** Current wind speed in m/s (hover to see current wind gust speed)